createdAt,value
2023-02-20T00:00:06.742Z,4.70
2023-02-20T00:06:08.255Z,4.72
2023-02-20T00:12:09.732Z,5.10
2023-02-20T00:18:11.344Z,4.97
2023-02-20T00:24:13.148Z,5.25
2023-02-20T00:30:15.930Z,4.60
2023-02-20T00:36:18.328Z,5.10
2023-02-20T00:42:19.801Z,5.15
2023-02-20T00:48:21.273Z,5.00
2023-02-20T00:54:22.827Z,5.32
2023-02-20T01:00:25.993Z,5.17
2023-02-20T01:06:27.619Z,4.80
2023-02-20T01:12:30.105Z,5.45
2023-02-20T01:18:31.637Z,4.77
2023-02-20T01:24:33.172Z,5.55
2023-02-20T01:30:34.676Z,4.87
2023-02-20T01:36:38.050Z,4.45
2023-02-20T01:42:39.532Z,4.07
2023-02-20T01:48:40.987Z,4.33
2023-02-20T01:54:45.214Z,3.67
2023-02-20T02:00:46.748Z,4.33
2023-02-20T02:06:49.785Z,3.83
2023-02-20T02:12:52.703Z,3.88
2023-02-20T02:19:00.420Z,3.87
2023-02-20T02:25:22.152Z,3.97
2023-02-20T02:31:34.174Z,4.03
2023-02-20T02:37:47.960Z,3.70
2023-02-20T02:43:53.885Z,3.67
2023-02-20T02:50:05.617Z,3.40
2023-02-20T02:56:22.044Z,3.28
2023-02-20T03:02:24.448Z,3.00
2023-02-20T03:08:41.543Z,3.45
2023-02-20T03:15:05.765Z,3.22
2023-02-20T03:21:16.858Z,3.23
2023-02-20T03:27:18.515Z,3.42
2023-02-20T03:33:53.030Z,3.83
2023-02-20T03:40:16.898Z,4.25
2023-02-20T03:46:23.023Z,4.05
2023-02-20T03:52:25.957Z,4.30
2023-02-20T03:58:29.006Z,5.07
2023-02-20T04:04:36.123Z,4.20
2023-02-20T04:10:58.638Z,5.38
2023-02-20T04:17:06.884Z,5.82
2023-02-20T04:23:16.161Z,5.33
2023-02-20T04:29:18.220Z,6.10
2023-02-20T04:35:20.321Z,5.70
2023-02-20T04:41:25.067Z,5.10
2023-02-20T04:47:27.717Z,4.65
2023-02-20T04:53:29.359Z,5.20
2023-02-20T04:59:31.592Z,4.95
2023-02-20T05:05:33.548Z,4.70
2023-02-20T05:11:34.984Z,3.83
2023-02-20T05:17:36.733Z,3.92
2023-02-20T05:23:38.266Z,3.87
2023-02-20T05:29:43.532Z,4.55
2023-02-20T05:35:44.989Z,4.40
2023-02-20T05:41:46.488Z,4.55
2023-02-20T05:47:48.215Z,3.97
2023-02-20T05:53:49.693Z,4.07
2023-02-20T05:59:51.179Z,4.40
2023-02-20T06:05:52.653Z,3.53
2023-02-20T06:11:55.280Z,3.63
2023-02-20T06:17:56.718Z,3.78
2023-02-20T06:23:58.194Z,3.20
2023-02-20T06:29:59.675Z,3.22
2023-02-20T06:36:01.190Z,3.37
2023-02-20T06:42:02.784Z,3.30
2023-02-20T06:48:04.380Z,3.38
2023-02-20T06:54:06.534Z,3.80
2023-02-20T07:00:08.450Z,3.97
2023-02-20T07:06:10.135Z,3.87
2023-02-20T07:12:12.004Z,4.40
2023-02-20T07:18:13.435Z,4.53
2023-02-20T07:24:15.108Z,4.57
2023-02-20T07:30:16.628Z,4.80
2023-02-20T07:36:18.375Z,4.53
2023-02-20T07:42:20.045Z,4.47
2023-02-20T07:48:26.287Z,4.65
2023-02-20T07:54:27.796Z,4.60
2023-02-20T08:00:29.396Z,4.70
2023-02-20T08:06:30.846Z,4.60
2023-02-20T08:12:32.352Z,4.05
2023-02-20T08:18:33.924Z,4.38
2023-02-20T08:24:35.416Z,3.97
2023-02-20T08:30:36.948Z,3.65
2023-02-20T08:36:40.003Z,4.23
2023-02-20T08:42:41.612Z,4.20
2023-02-20T08:48:43.222Z,3.60
2023-02-20T08:54:45.569Z,3.77
2023-02-20T09:00:47.256Z,3.58
2023-02-20T09:06:48.752Z,3.23
2023-02-20T09:12:50.212Z,2.90
2023-02-20T09:18:51.697Z,2.17
2023-02-20T09:24:54.461Z,2.53
2023-02-20T09:30:57.318Z,2.72
2023-02-20T09:36:58.804Z,2.60
2023-02-20T09:43:13.696Z,2.22
2023-02-20T09:49:29.726Z,1.80
2023-02-20T09:55:34.646Z,2.03
2023-02-20T10:01:39.179Z,2.08
2023-02-20T10:07:41.989Z,2.00
2023-02-20T10:13:51.127Z,2.20
2023-02-20T10:20:10.762Z,1.80
2023-02-20T10:26:14.265Z,1.67
2023-02-20T10:32:21.876Z,1.73
2023-02-20T10:38:25.633Z,1.63
2023-02-20T10:44:35.476Z,1.45
2023-02-20T10:50:47.337Z,1.80
2023-02-20T10:56:52.848Z,1.53
2023-02-20T11:02:57.783Z,1.60
2023-02-20T11:08:59.389Z,2.00
2023-02-20T11:15:05.142Z,1.55
2023-02-20T11:21:07.953Z,1.50
2023-02-20T11:27:11.475Z,1.23
2023-02-20T11:33:22.822Z,1.48
2023-02-20T11:39:28.682Z,1.37
2023-02-20T11:45:30.133Z,1.30
2023-02-20T11:51:32.712Z,1.30
2023-02-20T11:57:38.666Z,1.40
2023-02-20T12:03:40.232Z,1.50
2023-02-20T12:09:42.543Z,1.43
2023-02-20T12:15:45.678Z,1.40
2023-02-20T12:22:05.753Z,1.30
2023-02-20T12:28:17.001Z,1.40
2023-02-20T12:34:25.635Z,1.35
2023-02-20T12:40:30.238Z,1.20
2023-02-20T12:46:41.902Z,1.20
2023-02-20T12:52:50.848Z,1.30
2023-02-20T12:59:07.443Z,1.13
2023-02-20T13:05:11.141Z,1.40
2023-02-20T13:11:17.771Z,1.50
2023-02-20T13:17:26.221Z,2.10
2023-02-20T13:23:30.032Z,1.50
2023-02-20T13:29:31.968Z,1.50
2023-02-20T13:35:34.664Z,1.60
2023-02-20T13:41:54.760Z,1.40
2023-02-20T13:48:16.211Z,1.30
2023-02-20T13:54:23.271Z,1.58
2023-02-20T14:00:43.332Z,1.50
2023-02-20T14:06:58.550Z,1.48
2023-02-20T14:13:11.363Z,1.47
2023-02-20T14:19:26.878Z,1.60
2023-02-20T14:25:29.601Z,1.50
2023-02-20T14:31:33.336Z,2.20
2023-02-20T14:37:48.469Z,1.75
2023-02-20T14:44:00.507Z,1.67
2023-02-20T14:50:14.743Z,1.63
2023-02-20T14:56:17.495Z,1.73
2023-02-20T15:02:33.476Z,1.70
2023-02-20T15:08:37.742Z,1.70
2023-02-20T15:14:42.256Z,2.03
2023-02-20T15:20:45.227Z,1.90
2023-02-20T15:26:47.125Z,1.50
2023-02-20T15:32:52.407Z,1.70
2023-02-20T15:38:55.420Z,1.83
2023-02-20T15:44:57.231Z,1.70
2023-02-20T15:50:58.715Z,1.55
2023-02-20T15:57:00.144Z,1.80
2023-02-20T16:03:01.915Z,1.20
2023-02-20T16:09:03.524Z,1.80
2023-02-20T16:15:05.882Z,1.40
2023-02-20T16:21:07.363Z,1.45
2023-02-20T16:27:22.954Z,2.00
2023-02-20T16:33:25.430Z,1.90
2023-02-20T16:39:27.674Z,1.70
2023-02-20T16:45:29.310Z,1.80
2023-02-20T16:51:31.651Z,3.03
2023-02-20T16:57:33.230Z,3.30
2023-02-20T17:03:34.652Z,3.87
2023-02-20T17:09:44.387Z,3.80
2023-02-20T17:15:47.644Z,4.53
2023-02-20T17:21:49.856Z,2.10
2023-02-20T17:27:51.380Z,2.10
2023-02-20T17:33:52.817Z,1.60
2023-02-20T17:39:54.306Z,1.65
2023-02-20T17:45:55.900Z,1.90
2023-02-20T17:52:01.037Z,1.90
2023-02-20T17:58:03.227Z,1.88
2023-02-20T18:04:05.964Z,2.20
2023-02-20T18:10:07.520Z,2.00
2023-02-20T18:16:09.074Z,2.27
2023-02-20T18:22:10.561Z,2.53
2023-02-20T18:28:12.059Z,2.40
2023-02-20T18:34:13.568Z,2.50
2023-02-20T18:40:16.003Z,2.35
2023-02-20T18:46:24.991Z,3.30
2023-02-20T18:52:26.456Z,3.17
2023-02-20T18:58:30.015Z,3.20
2023-02-20T19:04:33.312Z,3.27
2023-02-20T19:10:34.959Z,3.55
2023-02-20T19:16:36.620Z,3.57
2023-02-20T19:22:38.109Z,3.65
2023-02-20T19:28:42.046Z,3.72
2023-02-20T19:34:43.547Z,3.40
2023-02-20T19:40:45.057Z,3.80
2023-02-20T19:46:46.605Z,3.43
2023-02-20T19:52:48.038Z,4.30
2023-02-20T19:58:49.494Z,3.60
2023-02-20T20:04:50.934Z,3.87
2023-02-20T20:10:52.990Z,4.03
2023-02-20T20:16:54.499Z,3.70
2023-02-20T20:22:57.205Z,3.80
2023-02-20T20:28:58.685Z,3.78
2023-02-20T20:35:00.299Z,3.63
2023-02-20T20:41:01.960Z,3.45
2023-02-20T20:47:04.335Z,3.30
2023-02-20T20:53:06.027Z,3.42
2023-02-20T20:59:11.261Z,2.85
2023-02-20T21:05:13.172Z,3.07
2023-02-20T21:11:15.020Z,3.00
2023-02-20T21:17:16.675Z,3.20
2023-02-20T21:23:18.233Z,3.13
2023-02-20T21:29:19.966Z,2.50
2023-02-20T21:35:22.016Z,2.50
2023-02-20T21:41:42.843Z,2.55
2023-02-20T21:47:44.404Z,2.10
2023-02-20T21:53:45.913Z,1.80
2023-02-20T21:59:47.435Z,1.63
2023-02-20T22:05:48.922Z,1.77
2023-02-20T22:12:09.226Z,2.13
2023-02-20T22:18:29.602Z,1.87
2023-02-20T22:24:49.996Z,1.88
2023-02-20T22:31:10.349Z,2.25
2023-02-20T22:37:30.588Z,2.00
2023-02-20T22:43:50.782Z,1.70
2023-02-20T22:50:11.104Z,2.13
2023-02-20T22:56:38.527Z,1.92
2023-02-20T23:02:58.811Z,2.25
2023-02-20T23:09:19.092Z,2.00
2023-02-20T23:15:39.408Z,1.80
2023-02-20T23:22:02.725Z,1.80
2023-02-20T23:28:31.995Z,1.90
2023-02-20T23:34:56.989Z,2.45
2023-02-20T23:41:17.342Z,2.30
2023-02-20T23:47:37.741Z,2.50
2023-02-20T23:53:57.948Z,2.20
